Forside
METAR-TAF:

METAR-TAF

Lufthavne :

Victoria, Mahé, Seychellerne

Breddekreds: 04-40S, længdekreds: 055-31E, højde: 3 m

Aktuelle vejr

Denne rapport blev lavet for 13 minutter siden, kl. 13:00 UTC
Vind 10 kt fra sydøst med vindstød på up til 22 kt, varierende mellem øst og sydsydvest
Temperatur 27°C
Fugtighed 79%
Tryk 1010 hPa
Nogle få skyer i en højde af 2100 ft

METAR: FSIA 221300Z 13010G22KT 090V200 //// R13///// FEW021 27/23 Q1010 NOSIG

Tid: 17:13 (13:13 UTC)

Vejrudsigter

Denne rapport blev lavet for 2 timer og 12 minutter siden, kl. 11:01 UTC
Foreløbig gælder fra 22 på 12 UTC til 23 på 12 UTC
Vind 15 kt fra sydsydøst med vindstød på up til 25 kt
Sigt 10 km eller mere
Spredte skyer i en højde af 2200 ft
Sandsynlighed 40% :
Midlertidig
fra 22 på 18 UTC til 23 på 06 UTC
Brudte skyer i en højde af 2000 ft
let regnbyger

TAF: FSIA 221101Z 2212/2312 15015G25KT 9999 SCT022 PROB40 TEMPO 2218/2306 -SHRA BKN020

Vejrobservationer og prognoser fra mere end 4000 lufthavne (METAR og TAF).

De gule og røde prikker repræsenterer de meteorologiske stationer.

Flyt musen over at se navnet på stationen.

Så klik over at se vejr observationer og prognoser.

At skifte det kort: Klik på de grønne knapper med et sort kors for at zoome ind; på den grønne knap med en bindestreg for at zoome ud; eller på de grønne pile for tilstødende kort.


METAR-TAF: